Ana Sayfa
METAR-TAF:

METAR-TAF

Havaalanları :

Midland, Teksas, Amerika Birleşik Devletleri

Enlem: 32-02-11N, Boylam: 102-06-03W, yükseklik: 854 m

Güncel hava durumu gözlemi

Rapor saat 04:15 UTC de 22 dakika önce yapıldı.
Rüzgar güneydan 10 kt
Sıcaklık 7°C
Nem 87%
Basınç 1019 hPa
Görüş mesafesi: 16.1 km
1900 ft yükseklikte parçalı bulutlu
7500 ft yükseklikte çok bulutlu

METAR: KMDD 220415Z AUTO 18010KT 10SM SCT019 OVC075 07/05 A3009 RMK AO2 T00750052

Saat: 22:37 (04:37 UTC)


TAF: eksik

4.000'den fazla havaalanı için hava durumu gözlemleri ve tahminleri (METAR ve TAF raporları).

Kullanılabilir istasyonlar harita üzerinde sarı ve kırmızı noktalarla gösterilir.

İstasyonun adını görmek için fareyi noktanın üzerinde gezdirin.

Sonrasında hava gözlem ve tahminlerini görmek için tıklayın.

Haritayı değiştirmek için: yaklaştırmak için siyah artı işaretli yeşil düğmeye ve uzaklaştırmak için de eksi işaretli düğmeye hızla tıklayın; bitişik haritalar için yeşil okları kullanın.


METAR-TAF: